Pagrindinis puslapis
METAR-TAF:

METAR-TAF

Oro uostai :

Popradas, Slovakija

platuma: 49-04N, ilguma: 020-15E, Aukštis: 694 m

Dabartinis oras

Ataskaita buvo paskelbta 26 minutes, ne 05:30 UTC
Vėjas 2 kt nuo kintamojo kryptimis
Temperatūra 14°C
Drėgmė 72%
Slėgis 1022 hPa
Matomumas 10 km arba daugiau
Mažai debesys ne aukštis 5600 ft

METAR: LZTT 260530Z VRB02KT 9999 FEW056 14/09 Q1022 NOSIG

Laikas: 07:56 (05:56 UTC)

Prognozė

Ataskaita buvo paskelbta 41 minutes, ne 05:15 UTC
Prognozė galioja nuo 26 metu 06 UTC su 27 metu 06 UTC
Vėjas 5 kt iš Rytų
Matomumas 10 km arba daugiau
Mažai debesys ne aukštis 5000 ft
Laikinai
nuo 26 metu 09 UTC su 26 metu 17 UTC
Vėjas 15 kt iš Vakarų
Išsisklaidę debesys ne aukštis 4500 ft, Liūtiniai kamuoliniai debesys.
lietus
Tikimybė 30% :
Laikinai
nuo 26 metu 11 UTC su 26 metu 15 UTC
perkūnija, lietus,

TAF: LZTT 260515Z 2606/2706 08005KT 9999 FEW050 TEMPO 2609/2617 26015KT SHRA SCT045CB PROB30 TEMPO 2611/2615 TSRA

Orai ataskaitas ir orų prognozės (METAR, TAF).

turimą stotys yra geltonos ir raudonos taškus žemėlapyje.

Perkelti pele per norėdami pamatyti stoties vardą.

Tada spustelėkite, norėdami matyti oro stebėjimo ir prognozės.

Norėdami pakeisti žemėlapį: spustelėkite ant žalios mygtukų su juodo kryžiaus žemyn,; žalią mygtuką su brūkšneliu, jei norite nutolinti; arba žalių rodyklių gretimoms žemėlapius.


METAR-TAF: